createdAt,value
2022-10-02T00:00:07.382Z,3.75
2022-10-02T00:03:29.296Z,4.35
2022-10-02T00:06:39.278Z,4.82
2022-10-02T00:09:56.977Z,4.97
2022-10-02T00:13:03.706Z,4.50
2022-10-02T00:16:05.744Z,4.32
2022-10-02T00:19:04.715Z,4.00
2022-10-02T00:22:20.025Z,4.35
2022-10-02T00:25:35.921Z,4.38
2022-10-02T00:28:46.830Z,4.03
2022-10-02T00:32:01.512Z,4.60
2022-10-02T00:35:21.788Z,5.03
2022-10-02T00:38:45.379Z,5.20
2022-10-02T00:42:10.860Z,5.82
2022-10-02T00:45:33.171Z,5.20
2022-10-02T00:48:51.245Z,4.97
2022-10-02T00:52:15.069Z,4.80
2022-10-02T00:55:31.269Z,4.90
2022-10-02T00:58:59.229Z,5.13
2022-10-02T01:02:05.151Z,4.97
2022-10-02T01:05:09.022Z,5.53
2022-10-02T01:08:17.495Z,4.75
2022-10-02T01:11:16.641Z,4.68
2022-10-02T01:14:15.664Z,5.10
2022-10-02T01:17:39.194Z,5.00
2022-10-02T01:20:42.270Z,4.55
2022-10-02T01:24:09.138Z,4.90
2022-10-02T01:27:07.857Z,5.40
2022-10-02T01:30:12.203Z,4.88
2022-10-02T01:33:11.654Z,4.97
2022-10-02T01:36:12.329Z,5.00
2022-10-02T01:39:11.885Z,4.40
2022-10-02T01:42:10.822Z,5.65
2022-10-02T01:45:10.739Z,5.95
2022-10-02T01:48:21.755Z,5.30
2022-10-02T01:51:59.883Z,7.03
2022-10-02T01:55:04.023Z,7.30
2022-10-02T01:58:26.205Z,6.30
2022-10-02T02:01:51.282Z,6.10
2022-10-02T02:05:03.894Z,6.55
2022-10-02T02:08:33.263Z,5.80
2022-10-02T02:11:31.970Z,6.30
2022-10-02T02:14:35.674Z,6.15
2022-10-02T02:17:50.307Z,6.10
2022-10-02T02:20:52.795Z,6.22
2022-10-02T02:23:53.934Z,6.72
2022-10-02T02:26:57.276Z,10.77
2022-10-02T02:30:02.404Z,8.45
2022-10-02T02:33:08.698Z,8.82
2022-10-02T02:36:13.943Z,8.10
2022-10-02T02:39:19.904Z,9.40
2022-10-02T02:42:25.808Z,7.93
2022-10-02T02:45:29.870Z,7.60
2022-10-02T02:48:33.534Z,8.48
2022-10-02T02:51:38.502Z,6.32
2022-10-02T02:54:44.701Z,7.18
2022-10-02T02:57:54.009Z,7.47
2022-10-02T03:00:53.465Z,7.80
2022-10-02T03:03:52.241Z,8.45
2022-10-02T03:06:56.348Z,7.18
2022-10-02T03:10:09.360Z,7.53
2022-10-02T03:13:29.422Z,8.73
2022-10-02T03:16:50.936Z,8.25
2022-10-02T03:20:07.804Z,8.18
2022-10-02T03:23:24.015Z,9.13
2022-10-02T03:26:32.845Z,8.90
2022-10-02T03:29:38.920Z,9.05
2022-10-02T03:32:40.944Z,8.63
2022-10-02T03:35:40.956Z,7.47
2022-10-02T03:38:39.851Z,8.40
2022-10-02T03:41:39.058Z,7.35
2022-10-02T03:44:37.324Z,8.43
2022-10-02T03:47:35.965Z,8.27
2022-10-02T03:50:36.560Z,7.85
2022-10-02T03:53:35.627Z,7.40
2022-10-02T03:56:42.582Z,7.95
2022-10-02T03:59:50.622Z,8.45
2022-10-02T04:02:55.987Z,8.95
2022-10-02T04:06:04.072Z,9.43
2022-10-02T04:09:11.125Z,8.18
2022-10-02T04:12:17.567Z,9.13
2022-10-02T04:15:37.256Z,7.75
2022-10-02T04:18:59.128Z,7.35
2022-10-02T04:22:29.714Z,7.60
2022-10-02T04:25:34.600Z,6.97
2022-10-02T04:28:40.854Z,7.60
2022-10-02T04:31:39.568Z,8.20
2022-10-02T04:34:38.159Z,8.20
2022-10-02T04:38:04.756Z,8.13
2022-10-02T04:41:38.264Z,7.85
2022-10-02T04:45:04.106Z,7.72
2022-10-02T04:48:32.996Z,7.65
2022-10-02T04:52:07.270Z,8.38
2022-10-02T04:55:27.746Z,8.82
2022-10-02T04:59:01.557Z,9.90
2022-10-02T05:02:10.392Z,9.18
2022-10-02T05:05:37.382Z,7.72
2022-10-02T05:08:57.965Z,9.38
2022-10-02T05:12:20.635Z,9.77
2022-10-02T05:15:40.567Z,9.85
2022-10-02T05:19:09.861Z,10.70
2022-10-02T05:22:39.417Z,9.82
2022-10-02T05:26:03.420Z,9.68
2022-10-02T05:29:27.772Z,9.77
2022-10-02T05:32:55.303Z,9.25
2022-10-02T05:36:24.808Z,9.32
2022-10-02T05:39:33.856Z,9.77
2022-10-02T05:42:43.024Z,10.35
2022-10-02T05:45:51.606Z,8.95
2022-10-02T05:49:01.251Z,9.88
2022-10-02T05:52:16.024Z,9.50
2022-10-02T05:55:21.711Z,11.73
2022-10-02T05:58:32.148Z,9.27
2022-10-02T06:01:40.900Z,9.63
2022-10-02T06:04:48.871Z,10.18
2022-10-02T06:07:52.520Z,10.43
2022-10-02T06:10:55.030Z,10.25
2022-10-02T06:14:01.317Z,10.27
2022-10-02T06:17:20.696Z,9.63
2022-10-02T06:20:33.411Z,13.50
2022-10-02T06:23:39.058Z,11.38
2022-10-02T06:26:58.011Z,11.68
2022-10-02T06:30:04.977Z,10.77
2022-10-02T06:33:15.891Z,9.57
2022-10-02T06:36:41.792Z,11.55
2022-10-02T06:40:04.188Z,13.43
2022-10-02T06:43:27.604Z,14.60
2022-10-02T06:46:51.233Z,12.48
2022-10-02T06:50:28.457Z,12.82
2022-10-02T06:53:48.482Z,12.63
2022-10-02T06:57:11.917Z,13.73
2022-10-02T07:00:13.099Z,14.25
2022-10-02T07:03:35.310Z,12.27
2022-10-02T07:06:45.552Z,17.67
2022-10-02T07:10:14.844Z,12.75
2022-10-02T07:13:43.626Z,13.90
2022-10-02T07:17:05.760Z,12.77
2022-10-02T07:20:22.623Z,12.95
2022-10-02T07:23:38.162Z,12.73
2022-10-02T07:26:47.541Z,12.82
2022-10-02T07:30:04.221Z,13.18
2022-10-02T07:33:20.931Z,13.25
2022-10-02T07:36:39.627Z,13.90
2022-10-02T07:39:56.230Z,15.38
2022-10-02T07:43:23.411Z,13.20
2022-10-02T07:46:36.155Z,14.83
2022-10-02T07:49:52.304Z,13.20
2022-10-02T07:53:06.925Z,13.95
2022-10-02T07:56:10.203Z,12.63
2022-10-02T07:59:16.655Z,12.52
2022-10-02T08:02:27.385Z,12.20
2022-10-02T08:05:33.353Z,13.07
2022-10-02T08:08:52.115Z,13.82
2022-10-02T08:11:59.696Z,13.50
2022-10-02T08:15:00.590Z,12.65
2022-10-02T08:18:23.204Z,13.10
2022-10-02T08:21:26.552Z,13.48
2022-10-02T08:24:31.414Z,13.75
2022-10-02T08:27:48.402Z,13.80
2022-10-02T08:30:47.323Z,14.38
2022-10-02T08:33:46.064Z,13.82
2022-10-02T08:37:19.332Z,12.95
2022-10-02T08:40:42.913Z,13.50
2022-10-02T08:44:06.894Z,13.48
2022-10-02T08:47:41.017Z,12.30
2022-10-02T08:51:00.679Z,14.65
2022-10-02T08:54:35.533Z,12.35
2022-10-02T08:58:06.818Z,14.48
2022-10-02T09:01:29.297Z,11.88
2022-10-02T09:05:02.253Z,11.95
2022-10-02T09:08:47.817Z,11.95
2022-10-02T09:12:30.621Z,12.18
2022-10-02T09:16:04.528Z,10.98
2022-10-02T09:19:30.435Z,10.13
2022-10-02T09:23:03.581Z,10.32
2022-10-02T09:26:29.652Z,9.65
2022-10-02T09:30:00.548Z,9.73
2022-10-02T09:33:31.153Z,8.98
2022-10-02T09:37:05.285Z,8.48
2022-10-02T09:40:35.488Z,8.93
2022-10-02T09:44:11.425Z,8.68
2022-10-02T09:47:38.490Z,9.02
2022-10-02T09:51:09.438Z,8.70
2022-10-02T09:54:44.000Z,9.05
2022-10-02T09:58:09.968Z,8.98
2022-10-02T10:01:28.841Z,8.90
2022-10-02T10:05:06.803Z,9.98
2022-10-02T10:08:30.358Z,9.23
2022-10-02T10:11:57.273Z,21.17
2022-10-02T10:15:33.194Z,11.57
2022-10-02T10:18:55.552Z,9.13
2022-10-02T10:22:27.855Z,9.07
2022-10-02T10:25:44.848Z,8.40
2022-10-02T10:29:11.745Z,8.50
2022-10-02T10:32:49.991Z,8.67
2022-10-02T10:36:33.142Z,9.05
2022-10-02T10:40:04.337Z,7.65
2022-10-02T10:43:34.122Z,8.98
2022-10-02T10:46:45.124Z,8.43
2022-10-02T10:50:02.783Z,8.52
2022-10-02T10:53:24.805Z,9.48
2022-10-02T10:56:37.621Z,8.45
2022-10-02T10:59:57.462Z,9.20
2022-10-02T11:03:28.290Z,9.02
2022-10-02T11:07:16.005Z,7.95
2022-10-02T11:10:31.402Z,7.22
2022-10-02T11:14:06.040Z,8.45
2022-10-02T11:17:27.998Z,7.85
2022-10-02T11:20:59.245Z,8.95
2022-10-02T11:24:26.058Z,9.82
2022-10-02T11:27:47.146Z,7.65
2022-10-02T11:31:17.107Z,6.95
2022-10-02T11:34:45.333Z,7.50
2022-10-02T11:38:04.267Z,8.40
2022-10-02T11:41:26.820Z,9.38
2022-10-02T11:44:56.066Z,10.50
2022-10-02T11:48:24.859Z,9.70
2022-10-02T11:51:47.838Z,9.90
2022-10-02T11:55:08.255Z,11.18
2022-10-02T11:58:42.248Z,12.75
2022-10-02T12:02:16.211Z,11.27
2022-10-02T12:05:35.993Z,12.90
2022-10-02T12:08:57.989Z,12.48
2022-10-02T12:12:23.508Z,10.50
2022-10-02T12:15:46.025Z,20.30
2022-10-02T12:19:05.090Z,23.02
2022-10-02T12:22:40.927Z,6.78
2022-10-02T12:26:05.285Z,16.25
2022-10-02T12:29:28.574Z,16.80
2022-10-02T12:32:49.605Z,19.17
2022-10-02T12:36:10.503Z,24.05
2022-10-02T12:39:33.525Z,19.63
2022-10-02T12:43:00.660Z,17.80
2022-10-02T12:46:28.329Z,22.40
2022-10-02T12:49:41.264Z,23.48
2022-10-02T12:53:10.965Z,23.27
2022-10-02T12:56:46.841Z,21.65
2022-10-02T12:59:58.777Z,23.55
2022-10-02T13:03:21.769Z,23.02
2022-10-02T13:06:51.650Z,18.42
2022-10-02T13:10:16.627Z,18.25
2022-10-02T13:13:43.324Z,18.90
2022-10-02T13:17:11.226Z,20.00
2022-10-02T13:20:23.101Z,22.77
2022-10-02T13:23:32.421Z,21.65
2022-10-02T13:26:53.179Z,22.02
2022-10-02T13:30:12.016Z,21.88
2022-10-02T13:33:41.946Z,22.98
2022-10-02T13:37:06.336Z,23.05
2022-10-02T13:40:31.535Z,23.10
2022-10-02T13:43:58.413Z,23.85
2022-10-02T13:47:33.208Z,21.48
2022-10-02T13:50:43.575Z,21.23
2022-10-02T13:54:09.603Z,21.23
2022-10-02T13:57:26.461Z,20.35
2022-10-02T14:00:51.564Z,19.42
2022-10-02T14:04:14.997Z,19.48
2022-10-02T14:07:39.094Z,17.75
2022-10-02T14:10:56.391Z,18.55
2022-10-02T14:14:17.749Z,19.50
2022-10-02T14:17:44.219Z,18.08
2022-10-02T14:21:00.697Z,18.98
2022-10-02T14:24:46.615Z,19.45
2022-10-02T14:28:09.075Z,19.50
2022-10-02T14:31:32.878Z,17.35
2022-10-02T14:35:02.348Z,18.17
2022-10-02T14:38:18.505Z,17.35
2022-10-02T14:41:38.354Z,16.23
2022-10-02T14:44:57.338Z,15.80
2022-10-02T14:48:22.429Z,16.77
2022-10-02T14:51:52.682Z,14.65
2022-10-02T14:55:17.614Z,14.15
2022-10-02T14:58:48.535Z,13.60
2022-10-02T15:02:17.237Z,13.60
2022-10-02T15:05:43.261Z,14.20
2022-10-02T15:08:49.305Z,13.68
2022-10-02T15:12:00.868Z,14.73
2022-10-02T15:15:14.335Z,12.73
2022-10-02T15:18:43.303Z,11.70
2022-10-02T15:22:01.231Z,12.20
2022-10-02T15:25:16.994Z,12.13
2022-10-02T15:28:38.198Z,12.70
2022-10-02T15:31:57.752Z,12.00
2022-10-02T15:35:23.921Z,12.52
2022-10-02T15:38:48.547Z,13.23
2022-10-02T15:42:10.068Z,13.63
2022-10-02T15:45:37.816Z,14.02
2022-10-02T15:48:55.781Z,16.48
2022-10-02T15:52:23.503Z,15.48
2022-10-02T15:55:46.252Z,19.10
2022-10-02T15:59:09.193Z,18.42
2022-10-02T16:02:34.299Z,18.17
2022-10-02T16:06:04.178Z,18.63
2022-10-02T16:09:26.967Z,17.98
2022-10-02T16:12:56.271Z,17.05
2022-10-02T16:16:01.397Z,17.30
2022-10-02T16:19:28.933Z,17.63
2022-10-02T16:22:52.029Z,15.30
2022-10-02T16:26:25.342Z,14.55
2022-10-02T16:29:42.867Z,17.30
2022-10-02T16:33:16.163Z,15.27
2022-10-02T16:36:32.284Z,13.75
2022-10-02T16:40:00.342Z,15.05
2022-10-02T16:43:30.207Z,14.52
2022-10-02T16:46:58.955Z,13.07
2022-10-02T16:50:05.632Z,13.25
2022-10-02T16:53:19.719Z,11.25
2022-10-02T16:56:32.599Z,12.57
2022-10-02T16:59:52.005Z,13.00
2022-10-02T17:03:02.995Z,12.60
2022-10-02T17:06:19.892Z,11.55
2022-10-02T17:09:27.323Z,11.55
2022-10-02T17:12:49.023Z,10.93
2022-10-02T17:16:09.881Z,10.93
2022-10-02T17:19:31.385Z,11.10
2022-10-02T17:22:43.243Z,11.23
2022-10-02T17:26:02.270Z,10.90
2022-10-02T17:29:23.261Z,9.95
2022-10-02T17:32:51.994Z,9.50
2022-10-02T17:36:06.450Z,9.35
2022-10-02T17:39:35.493Z,8.80
2022-10-02T17:42:54.879Z,9.77
2022-10-02T17:46:14.886Z,8.43
2022-10-02T17:49:38.826Z,8.93
2022-10-02T17:53:05.551Z,8.63
2022-10-02T17:56:48.911Z,8.27
2022-10-02T18:00:20.095Z,8.25
2022-10-02T18:03:40.129Z,8.93
2022-10-02T18:07:18.077Z,8.75
2022-10-02T18:10:32.189Z,7.72
2022-10-02T18:14:05.444Z,8.35
2022-10-02T18:17:27.345Z,8.15
2022-10-02T18:20:35.906Z,7.97
2022-10-02T18:24:01.065Z,9.15
2022-10-02T18:27:37.425Z,8.32
2022-10-02T18:30:58.792Z,7.33
2022-10-02T18:34:14.843Z,8.07
2022-10-02T18:37:35.328Z,6.97
2022-10-02T18:41:05.770Z,7.35
2022-10-02T18:44:27.411Z,6.88
2022-10-02T18:47:47.728Z,7.65
2022-10-02T18:51:06.939Z,7.43
2022-10-02T18:54:36.118Z,6.85
2022-10-02T18:58:04.884Z,6.80
2022-10-02T19:01:23.851Z,6.30
2022-10-02T19:04:41.008Z,6.70
2022-10-02T19:07:47.925Z,7.35
2022-10-02T19:10:48.484Z,7.63
2022-10-02T19:13:49.402Z,6.90
2022-10-02T19:17:06.292Z,5.88
2022-10-02T19:20:39.553Z,6.82
2022-10-02T19:23:53.932Z,6.18
2022-10-02T19:27:00.180Z,6.80
2022-10-02T19:30:01.923Z,7.78
2022-10-02T19:33:08.472Z,7.32
2022-10-02T19:36:07.885Z,7.25
2022-10-02T19:39:18.484Z,6.80
2022-10-02T19:42:25.181Z,7.18
2022-10-02T19:45:27.840Z,7.05
2022-10-02T19:48:28.910Z,6.13
2022-10-02T19:51:27.106Z,6.38
2022-10-02T19:54:37.912Z,7.20
2022-10-02T19:57:40.932Z,6.75
2022-10-02T20:00:39.812Z,6.28
2022-10-02T20:03:38.746Z,7.07
2022-10-02T20:06:40.899Z,7.00
2022-10-02T20:09:51.633Z,6.93
2022-10-02T20:12:56.821Z,7.90
2022-10-02T20:16:16.182Z,7.30
2022-10-02T20:19:20.385Z,7.25
2022-10-02T20:22:29.525Z,7.20
2022-10-02T20:25:35.520Z,7.55
2022-10-02T20:28:45.323Z,6.57
2022-10-02T20:31:50.666Z,7.20
2022-10-02T20:34:58.135Z,7.25
2022-10-02T20:40:58.239Z,6.28
2022-10-02T20:44:04.879Z,6.30
2022-10-02T20:47:33.908Z,5.90
2022-10-02T20:50:57.584Z,6.68
2022-10-02T20:54:16.819Z,6.75
2022-10-02T20:57:59.810Z,6.40
2022-10-02T21:01:22.255Z,5.38
2022-10-02T21:04:49.685Z,5.90
2022-10-02T21:08:14.352Z,7.05
2022-10-02T21:11:43.987Z,5.55
2022-10-02T21:15:00.571Z,6.45
2022-10-02T21:18:26.911Z,6.18
2022-10-02T21:21:53.800Z,5.60
2022-10-02T21:25:19.312Z,5.38
2022-10-02T21:28:42.252Z,4.78
2022-10-02T21:32:06.450Z,4.65
2022-10-02T21:35:17.411Z,4.82
2022-10-02T21:38:51.257Z,5.10
2022-10-02T21:42:18.063Z,4.68
2022-10-02T21:45:47.037Z,4.40
2022-10-02T21:49:15.977Z,5.28
2022-10-02T21:52:48.593Z,4.53
2022-10-02T21:56:21.766Z,4.50
2022-10-02T21:59:50.212Z,4.32
2022-10-02T22:03:23.392Z,4.95
2022-10-02T22:06:45.643Z,5.25
2022-10-02T22:09:58.409Z,5.55
2022-10-02T22:13:23.941Z,5.28
2022-10-02T22:16:45.635Z,6.13
2022-10-02T22:20:00.622Z,4.80
2022-10-02T22:23:34.122Z,6.07
2022-10-02T22:26:59.468Z,6.18
2022-10-02T22:29:58.358Z,5.45
2022-10-02T22:33:11.268Z,6.32
2022-10-02T22:36:32.558Z,5.90
2022-10-02T22:39:39.435Z,6.50
2022-10-02T22:42:43.288Z,6.70
2022-10-02T22:45:51.247Z,7.72
2022-10-02T22:49:09.954Z,7.57
2022-10-02T22:52:27.200Z,6.63
2022-10-02T22:55:30.403Z,7.03
2022-10-02T22:58:45.182Z,7.20
2022-10-02T23:02:05.549Z,6.65
2022-10-02T23:05:14.670Z,6.10
2022-10-02T23:08:43.622Z,6.65
2022-10-02T23:11:57.521Z,6.72
2022-10-02T23:15:15.452Z,6.45
2022-10-02T23:18:38.759Z,6.53
2022-10-02T23:21:55.413Z,6.40
2022-10-02T23:25:24.891Z,7.03
2022-10-02T23:28:32.604Z,8.57
2022-10-02T23:31:41.677Z,8.07
2022-10-02T23:34:57.408Z,9.30
2022-10-02T23:38:18.531Z,7.85
2022-10-02T23:41:38.311Z,8.60
2022-10-02T23:44:57.787Z,8.88
2022-10-02T23:48:00.663Z,9.52
2022-10-02T23:51:19.979Z,9.18
2022-10-02T23:54:41.257Z,7.75
2022-10-02T23:58:03.121Z,9.30
